sensor_id;sensor_type;location;lat;lon;timestamp;temperature;humidity
20045;DHT22;10183;47.808;9.476;2022-07-23T00:00:34;18.20;99.90
20045;DHT22;10183;47.808;9.476;2022-07-23T00:03:00;18.20;99.90
20045;DHT22;10183;47.808;9.476;2022-07-23T00:05:26;18.10;99.90
20045;DHT22;10183;47.808;9.476;2022-07-23T00:07:52;18.10;99.90
20045;DHT22;10183;47.808;9.476;2022-07-23T00:10:20;18.20;99.90
20045;DHT22;10183;47.808;9.476;2022-07-23T00:12:46;18.10;99.90
20045;DHT22;10183;47.808;9.476;2022-07-23T00:15:12;18.10;99.90
20045;DHT22;10183;47.808;9.476;2022-07-23T00:17:38;18.20;99.90
20045;DHT22;10183;47.808;9.476;2022-07-23T00:20:05;18.30;99.90
20045;DHT22;10183;47.808;9.476;2022-07-23T00:22:31;18.10;99.90
20045;DHT22;10183;47.808;9.476;2022-07-23T00:24:57;17.80;99.90
20045;DHT22;10183;47.808;9.476;2022-07-23T00:27:23;17.70;99.90
20045;DHT22;10183;47.808;9.476;2022-07-23T00:29:50;17.70;99.90
20045;DHT22;10183;47.808;9.476;2022-07-23T00:32:16;17.60;99.90
20045;DHT22;10183;47.808;9.476;2022-07-23T00:34:42;17.60;99.90
20045;DHT22;10183;47.808;9.476;2022-07-23T00:37:08;17.70;99.90
20045;DHT22;10183;47.808;9.476;2022-07-23T00:39:34;17.90;99.90
20045;DHT22;10183;47.808;9.476;2022-07-23T00:42:01;17.90;99.90
20045;DHT22;10183;47.808;9.476;2022-07-23T00:44:28;17.80;99.90
20045;DHT22;10183;47.808;9.476;2022-07-23T00:46:56;17.80;99.90
20045;DHT22;10183;47.808;9.476;2022-07-23T00:49:27;17.80;99.90
20045;DHT22;10183;47.808;9.476;2022-07-23T00:51:54;17.50;99.90
20045;DHT22;10183;47.808;9.476;2022-07-23T00:54:24;17.50;99.90
20045;DHT22;10183;47.808;9.476;2022-07-23T00:56:50;17.50;99.90
20045;DHT22;10183;47.808;9.476;2022-07-23T00:59:17;17.60;99.90
20045;DHT22;10183;47.808;9.476;2022-07-23T01:01:43;17.70;99.90
20045;DHT22;10183;47.808;9.476;2022-07-23T01:04:11;17.80;99.90
20045;DHT22;10183;47.808;9.476;2022-07-23T01:06:38;17.80;99.90
20045;DHT22;10183;47.808;9.476;2022-07-23T01:09:05;17.80;99.90
20045;DHT22;10183;47.808;9.476;2022-07-23T01:11:36;17.80;99.90
20045;DHT22;10183;47.808;9.476;2022-07-23T01:14:14;17.80;99.90
20045;DHT22;10183;47.808;9.476;2022-07-23T01:16:42;17.70;99.90
20045;DHT22;10183;47.808;9.476;2022-07-23T01:19:09;17.60;99.90
20045;DHT22;10183;47.808;9.476;2022-07-23T01:21:42;17.50;99.90
20045;DHT22;10183;47.808;9.476;2022-07-23T01:24:09;17.50;99.90
20045;DHT22;10183;47.808;9.476;2022-07-23T01:26:36;17.50;99.90
20045;DHT22;10183;47.808;9.476;2022-07-23T01:29:03;17.50;99.90
20045;DHT22;10183;47.808;9.476;2022-07-23T01:31:30;17.50;99.90
20045;DHT22;10183;47.808;9.476;2022-07-23T01:33:56;17.60;99.90
20045;DHT22;10183;47.808;9.476;2022-07-23T01:36:22;17.50;99.90
20045;DHT22;10183;47.808;9.476;2022-07-23T01:38:49;17.30;99.90
20045;DHT22;10183;47.808;9.476;2022-07-23T01:41:16;17.40;99.90
20045;DHT22;10183;47.808;9.476;2022-07-23T01:43:42;17.00;99.90
20045;DHT22;10183;47.808;9.476;2022-07-23T01:46:09;17.00;99.90
20045;DHT22;10183;47.808;9.476;2022-07-23T01:48:35;17.10;99.90
20045;DHT22;10183;47.808;9.476;2022-07-23T01:51:02;17.10;99.90
20045;DHT22;10183;47.808;9.476;2022-07-23T01:53:29;16.70;99.90
20045;DHT22;10183;47.808;9.476;2022-07-23T01:55:59;16.80;99.90
20045;DHT22;10183;47.808;9.476;2022-07-23T01:58:27;16.80;99.90
20045;DHT22;10183;47.808;9.476;2022-07-23T02:00:54;16.90;99.90
20045;DHT22;10183;47.808;9.476;2022-07-23T02:03:21;17.00;99.90
20045;DHT22;10183;47.808;9.476;2022-07-23T02:05:48;17.00;99.90
20045;DHT22;10183;47.808;9.476;2022-07-23T02:08:14;17.10;99.90
20045;DHT22;10183;47.808;9.476;2022-07-23T02:10:41;17.20;99.90
20045;DHT22;10183;47.808;9.476;2022-07-23T02:13:07;17.20;99.90
20045;DHT22;10183;47.808;9.476;2022-07-23T02:15:33;17.10;99.90
20045;DHT22;10183;47.808;9.476;2022-07-23T02:18:00;17.10;99.90
20045;DHT22;10183;47.808;9.476;2022-07-23T02:20:26;17.10;99.90
20045;DHT22;10183;47.808;9.476;2022-07-23T02:22:52;17.00;99.90
20045;DHT22;10183;47.808;9.476;2022-07-23T02:25:19;17.00;99.90
20045;DHT22;10183;47.808;9.476;2022-07-23T02:27:45;16.50;99.90
20045;DHT22;10183;47.808;9.476;2022-07-23T02:30:11;16.30;99.90
20045;DHT22;10183;47.808;9.476;2022-07-23T02:32:38;16.40;99.90
20045;DHT22;10183;47.808;9.476;2022-07-23T02:35:06;16.50;99.90
20045;DHT22;10183;47.808;9.476;2022-07-23T02:37:32;16.50;99.90
20045;DHT22;10183;47.808;9.476;2022-07-23T02:39:59;16.50;99.90
20045;DHT22;10183;47.808;9.476;2022-07-23T02:42:25;16.60;99.90
20045;DHT22;10183;47.808;9.476;2022-07-23T02:44:52;16.70;99.90
20045;DHT22;10183;47.808;9.476;2022-07-23T02:47:18;16.80;99.90
20045;DHT22;10183;47.808;9.476;2022-07-23T02:49:44;16.80;99.90
20045;DHT22;10183;47.808;9.476;2022-07-23T02:52:10;16.50;99.90
20045;DHT22;10183;47.808;9.476;2022-07-23T02:54:37;16.50;99.90
20045;DHT22;10183;47.808;9.476;2022-07-23T02:57:04;16.50;99.90
20045;DHT22;10183;47.808;9.476;2022-07-23T02:59:30;16.70;99.90
20045;DHT22;10183;47.808;9.476;2022-07-23T03:01:56;16.70;99.90
20045;DHT22;10183;47.808;9.476;2022-07-23T03:04:23;16.80;99.90
20045;DHT22;10183;47.808;9.476;2022-07-23T03:06:49;16.90;99.90
20045;DHT22;10183;47.808;9.476;2022-07-23T03:09:15;16.90;99.90
20045;DHT22;10183;47.808;9.476;2022-07-23T03:11:41;16.80;99.90
20045;DHT22;10183;47.808;9.476;2022-07-23T03:14:07;16.80;99.90
20045;DHT22;10183;47.808;9.476;2022-07-23T03:16:33;16.90;99.90
20045;DHT22;10183;47.808;9.476;2022-07-23T03:18:59;16.50;99.90
20045;DHT22;10183;47.808;9.476;2022-07-23T03:21:26;16.40;99.90
20045;DHT22;10183;47.808;9.476;2022-07-23T03:23:52;16.30;99.90
20045;DHT22;10183;47.808;9.476;2022-07-23T03:26:18;16.30;99.90
20045;DHT22;10183;47.808;9.476;2022-07-23T03:28:44;16.50;99.90
20045;DHT22;10183;47.808;9.476;2022-07-23T03:31:10;16.50;99.90
20045;DHT22;10183;47.808;9.476;2022-07-23T03:33:37;16.60;99.90
20045;DHT22;10183;47.808;9.476;2022-07-23T03:36:03;16.70;99.90
20045;DHT22;10183;47.808;9.476;2022-07-23T03:38:29;16.70;99.90
20045;DHT22;10183;47.808;9.476;2022-07-23T03:40:55;16.80;99.90
20045;DHT22;10183;47.808;9.476;2022-07-23T03:43:21;16.70;99.90
20045;DHT22;10183;47.808;9.476;2022-07-23T03:45:50;16.80;99.90
20045;DHT22;10183;47.808;9.476;2022-07-23T03:48:16;16.80;99.90
20045;DHT22;10183;47.808;9.476;2022-07-23T03:50:42;16.80;99.90
20045;DHT22;10183;47.808;9.476;2022-07-23T03:53:08;16.70;99.90
20045;DHT22;10183;47.808;9.476;2022-07-23T03:55:34;16.70;99.90
20045;DHT22;10183;47.808;9.476;2022-07-23T03:58:01;16.70;99.90
20045;DHT22;10183;47.808;9.476;2022-07-23T04:00:27;16.70;99.90
20045;DHT22;10183;47.808;9.476;2022-07-23T04:02:53;16.80;99.90
20045;DHT22;10183;47.808;9.476;2022-07-23T04:05:19;16.80;99.90
20045;DHT22;10183;47.808;9.476;2022-07-23T04:07:45;16.80;99.90
20045;DHT22;10183;47.808;9.476;2022-07-23T04:10:12;16.90;99.90
20045;DHT22;10183;47.808;9.476;2022-07-23T04:12:38;17.00;99.90
20045;DHT22;10183;47.808;9.476;2022-07-23T04:15:06;16.60;99.90
20045;DHT22;10183;47.808;9.476;2022-07-23T04:17:32;16.50;99.90
20045;DHT22;10183;47.808;9.476;2022-07-23T04:19:59;16.60;99.90
20045;DHT22;10183;47.808;9.476;2022-07-23T04:22:25;16.60;99.90
20045;DHT22;10183;47.808;9.476;2022-07-23T04:24:51;16.70;99.90
20045;DHT22;10183;47.808;9.476;2022-07-23T04:27:17;16.70;99.90
20045;DHT22;10183;47.808;9.476;2022-07-23T04:29:43;16.80;99.90
20045;DHT22;10183;47.808;9.476;2022-07-23T04:32:10;16.90;99.90
20045;DHT22;10183;47.808;9.476;2022-07-23T04:34:36;16.90;99.90
20045;DHT22;10183;47.808;9.476;2022-07-23T04:37:02;17.00;99.90
20045;DHT22;10183;47.808;9.476;2022-07-23T04:39:28;17.00;99.90
20045;DHT22;10183;47.808;9.476;2022-07-23T04:41:54;17.10;99.90
20045;DHT22;10183;47.808;9.476;2022-07-23T04:44:20;17.10;99.90
20045;DHT22;10183;47.808;9.476;2022-07-23T04:46:47;17.00;99.90
20045;DHT22;10183;47.808;9.476;2022-07-23T04:49:13;17.00;99.90
20045;DHT22;10183;47.808;9.476;2022-07-23T04:51:39;17.00;99.90
20045;DHT22;10183;47.808;9.476;2022-07-23T04:54:05;16.80;99.90
20045;DHT22;10183;47.808;9.476;2022-07-23T04:56:31;16.70;99.90
20045;DHT22;10183;47.808;9.476;2022-07-23T04:58:57;16.60;99.90
20045;DHT22;10183;47.808;9.476;2022-07-23T05:01:24;16.50;99.90
20045;DHT22;10183;47.808;9.476;2022-07-23T05:03:50;16.50;99.90
20045;DHT22;10183;47.808;9.476;2022-07-23T05:06:16;16.60;99.90
20045;DHT22;10183;47.808;9.476;2022-07-23T05:08:42;16.70;99.90
20045;DHT22;10183;47.808;9.476;2022-07-23T05:11:08;16.80;99.90
20045;DHT22;10183;47.808;9.476;2022-07-23T05:13:35;16.80;99.90
20045;DHT22;10183;47.808;9.476;2022-07-23T05:16:01;16.80;99.90
20045;DHT22;10183;47.808;9.476;2022-07-23T05:18:27;16.80;99.90
20045;DHT22;10183;47.808;9.476;2022-07-23T05:20:54;16.80;99.90
20045;DHT22;10183;47.808;9.476;2022-07-23T05:23:20;16.80;99.90
20045;DHT22;10183;47.808;9.476;2022-07-23T05:25:46;16.80;99.90
20045;DHT22;10183;47.808;9.476;2022-07-23T05:28:12;16.80;99.90
20045;DHT22;10183;47.808;9.476;2022-07-23T05:30:38;16.80;99.90
20045;DHT22;10183;47.808;9.476;2022-07-23T05:33:05;17.00;99.90
20045;DHT22;10183;47.808;9.476;2022-07-23T05:35:32;17.00;99.90
20045;DHT22;10183;47.808;9.476;2022-07-23T05:37:58;17.10;99.90
20045;DHT22;10183;47.808;9.476;2022-07-23T05:40:25;17.10;99.90
20045;DHT22;10183;47.808;9.476;2022-07-23T05:42:51;17.20;99.90
20045;DHT22;10183;47.808;9.476;2022-07-23T05:45:17;17.20;99.90
20045;DHT22;10183;47.808;9.476;2022-07-23T05:47:45;17.20;99.90
20045;DHT22;10183;47.808;9.476;2022-07-23T05:50:12;17.20;99.90
20045;DHT22;10183;47.808;9.476;2022-07-23T05:52:39;17.20;99.90
20045;DHT22;10183;47.808;9.476;2022-07-23T05:55:06;17.10;99.90
20045;DHT22;10183;47.808;9.476;2022-07-23T05:57:33;17.10;99.90
20045;DHT22;10183;47.808;9.476;2022-07-23T05:59:59;17.10;99.90
20045;DHT22;10183;47.808;9.476;2022-07-23T06:02:26;17.20;99.90
20045;DHT22;10183;47.808;9.476;2022-07-23T06:04:52;17.10;99.90
20045;DHT22;10183;47.808;9.476;2022-07-23T06:07:18;17.20;99.90
20045;DHT22;10183;47.808;9.476;2022-07-23T06:09:44;17.20;99.90
20045;DHT22;10183;47.808;9.476;2022-07-23T06:12:13;17.40;99.90
20045;DHT22;10183;47.808;9.476;2022-07-23T06:14:39;17.40;99.90
20045;DHT22;10183;47.808;9.476;2022-07-23T06:17:05;17.40;99.90
20045;DHT22;10183;47.808;9.476;2022-07-23T06:19:31;17.50;99.90
20045;DHT22;10183;47.808;9.476;2022-07-23T06:21:57;17.60;99.90
20045;DHT22;10183;47.808;9.476;2022-07-23T06:24:23;17.40;99.90
20045;DHT22;10183;47.808;9.476;2022-07-23T06:26:50;17.40;99.90
20045;DHT22;10183;47.808;9.476;2022-07-23T06:29:16;17.60;99.90
20045;DHT22;10183;47.808;9.476;2022-07-23T06:31:42;17.60;99.90
20045;DHT22;10183;47.808;9.476;2022-07-23T06:34:08;17.60;99.90
20045;DHT22;10183;47.808;9.476;2022-07-23T06:36:35;17.70;99.90
20045;DHT22;10183;47.808;9.476;2022-07-23T06:39:01;17.70;99.90
20045;DHT22;10183;47.808;9.476;2022-07-23T06:41:27;17.80;99.90
20045;DHT22;10183;47.808;9.476;2022-07-23T06:43:54;17.80;99.90
20045;DHT22;10183;47.808;9.476;2022-07-23T06:46:20;17.90;99.90
20045;DHT22;10183;47.808;9.476;2022-07-23T06:48:47;17.90;99.90
20045;DHT22;10183;47.808;9.476;2022-07-23T06:51:14;18.00;99.90
20045;DHT22;10183;47.808;9.476;2022-07-23T06:53:40;18.10;99.90
20045;DHT22;10183;47.808;9.476;2022-07-23T06:56:07;18.00;99.90
20045;DHT22;10183;47.808;9.476;2022-07-23T06:58:33;18.20;99.90
20045;DHT22;10183;47.808;9.476;2022-07-23T07:00:59;18.20;99.90
20045;DHT22;10183;47.808;9.476;2022-07-23T07:03:26;18.20;99.90
20045;DHT22;10183;47.808;9.476;2022-07-23T07:05:52;18.30;99.90
20045;DHT22;10183;47.808;9.476;2022-07-23T07:08:19;18.20;99.90
20045;DHT22;10183;47.808;9.476;2022-07-23T07:10:45;18.30;99.90
20045;DHT22;10183;47.808;9.476;2022-07-23T07:13:12;18.10;99.90
20045;DHT22;10183;47.808;9.476;2022-07-23T07:15:38;18.30;99.90
20045;DHT22;10183;47.808;9.476;2022-07-23T07:18:04;18.50;99.90
20045;DHT22;10183;47.808;9.476;2022-07-23T07:20:31;18.50;99.90
20045;DHT22;10183;47.808;9.476;2022-07-23T07:22:57;18.60;99.90
20045;DHT22;10183;47.808;9.476;2022-07-23T07:25:23;18.60;99.90
20045;DHT22;10183;47.808;9.476;2022-07-23T07:27:49;18.60;99.90
20045;DHT22;10183;47.808;9.476;2022-07-23T07:30:16;18.80;99.90
20045;DHT22;10183;47.808;9.476;2022-07-23T07:32:42;18.90;99.90
20045;DHT22;10183;47.808;9.476;2022-07-23T07:35:09;18.90;99.90
20045;DHT22;10183;47.808;9.476;2022-07-23T07:37:35;19.10;99.90
20045;DHT22;10183;47.808;9.476;2022-07-23T07:40:02;19.10;99.90
20045;DHT22;10183;47.808;9.476;2022-07-23T07:42:28;19.20;99.90
20045;DHT22;10183;47.808;9.476;2022-07-23T07:44:55;19.20;99.90
20045;DHT22;10183;47.808;9.476;2022-07-23T07:47:21;19.00;99.90
20045;DHT22;10183;47.808;9.476;2022-07-23T07:49:47;18.90;99.90
20045;DHT22;10183;47.808;9.476;2022-07-23T07:52:13;18.80;99.90
20045;DHT22;10183;47.808;9.476;2022-07-23T07:54:40;18.80;99.90
20045;DHT22;10183;47.808;9.476;2022-07-23T07:57:06;18.70;99.90
20045;DHT22;10183;47.808;9.476;2022-07-23T07:59:32;18.70;99.90
20045;DHT22;10183;47.808;9.476;2022-07-23T08:01:58;18.80;99.90
20045;DHT22;10183;47.808;9.476;2022-07-23T08:04:24;18.90;99.90
20045;DHT22;10183;47.808;9.476;2022-07-23T08:06:51;18.90;99.90
20045;DHT22;10183;47.808;9.476;2022-07-23T08:09:17;18.90;99.90
20045;DHT22;10183;47.808;9.476;2022-07-23T08:11:44;18.80;99.90
20045;DHT22;10183;47.808;9.476;2022-07-23T08:14:12;18.80;99.90
20045;DHT22;10183;47.808;9.476;2022-07-23T08:16:40;18.80;99.90
20045;DHT22;10183;47.808;9.476;2022-07-23T08:19:06;18.80;99.90
20045;DHT22;10183;47.808;9.476;2022-07-23T08:21:32;18.70;99.90
20045;DHT22;10183;47.808;9.476;2022-07-23T08:23:59;18.70;99.90
20045;DHT22;10183;47.808;9.476;2022-07-23T08:26:25;18.70;99.90
20045;DHT22;10183;47.808;9.476;2022-07-23T08:28:51;18.70;99.90
20045;DHT22;10183;47.808;9.476;2022-07-23T08:31:17;18.60;99.90
20045;DHT22;10183;47.808;9.476;2022-07-23T08:33:44;18.60;99.90
20045;DHT22;10183;47.808;9.476;2022-07-23T08:36:11;18.60;99.90
20045;DHT22;10183;47.808;9.476;2022-07-23T08:38:37;18.70;99.90
20045;DHT22;10183;47.808;9.476;2022-07-23T08:41:03;18.50;99.90
20045;DHT22;10183;47.808;9.476;2022-07-23T08:43:32;18.50;99.90
20045;DHT22;10183;47.808;9.476;2022-07-23T08:46:00;18.70;99.90
20045;DHT22;10183;47.808;9.476;2022-07-23T08:48:32;18.80;99.90
20045;DHT22;10183;47.808;9.476;2022-07-23T08:51:00;18.60;99.90
20045;DHT22;10183;47.808;9.476;2022-07-23T08:53:28;18.30;99.90
20045;DHT22;10183;47.808;9.476;2022-07-23T08:55:58;18.50;99.90
20045;DHT22;10183;47.808;9.476;2022-07-23T08:58:25;18.40;99.90
20045;DHT22;10183;47.808;9.476;2022-07-23T09:00:52;18.30;99.90
20045;DHT22;10183;47.808;9.476;2022-07-23T09:03:24;18.40;99.90
20045;DHT22;10183;47.808;9.476;2022-07-23T09:05:51;18.40;99.90
20045;DHT22;10183;47.808;9.476;2022-07-23T09:08:22;18.40;99.90
20045;DHT22;10183;47.808;9.476;2022-07-23T09:10:51;18.60;99.90
20045;DHT22;10183;47.808;9.476;2022-07-23T09:13:45;18.60;99.90
20045;DHT22;10183;47.808;9.476;2022-07-23T09:16:24;18.60;99.90
20045;DHT22;10183;47.808;9.476;2022-07-23T09:18:56;18.70;99.90
20045;DHT22;10183;47.808;9.476;2022-07-23T09:24:08;18.80;99.90
20045;DHT22;10183;47.808;9.476;2022-07-23T09:26:36;19.10;99.90
20045;DHT22;10183;47.808;9.476;2022-07-23T09:29:16;19.10;99.90
20045;DHT22;10183;47.808;9.476;2022-07-23T09:32:00;19.00;99.90
20045;DHT22;10183;47.808;9.476;2022-07-23T09:34:30;19.20;99.90
20045;DHT22;10183;47.808;9.476;2022-07-23T09:37:19;19.10;99.90
20045;DHT22;10183;47.808;9.476;2022-07-23T09:39:47;19.00;99.90
20045;DHT22;10183;47.808;9.476;2022-07-23T09:42:18;18.80;99.90
20045;DHT22;10183;47.808;9.476;2022-07-23T09:44:47;18.90;99.90
20045;DHT22;10183;47.808;9.476;2022-07-23T09:47:14;19.00;99.90
20045;DHT22;10183;47.808;9.476;2022-07-23T09:49:40;19.00;99.90
20045;DHT22;10183;47.808;9.476;2022-07-23T09:52:33;18.90;99.90
20045;DHT22;10183;47.808;9.476;2022-07-23T09:55:02;18.80;99.90
20045;DHT22;10183;47.808;9.476;2022-07-23T09:57:31;18.90;99.90
20045;DHT22;10183;47.808;9.476;2022-07-23T10:00:00;18.80;99.90
20045;DHT22;10183;47.808;9.476;2022-07-23T10:02:28;19.00;99.90
20045;DHT22;10183;47.808;9.476;2022-07-23T10:04:56;19.20;99.90
20045;DHT22;10183;47.808;9.476;2022-07-23T10:07:23;19.30;99.90
20045;DHT22;10183;47.808;9.476;2022-07-23T10:09:52;19.30;99.90
20045;DHT22;10183;47.808;9.476;2022-07-23T10:12:19;19.10;99.90
20045;DHT22;10183;47.808;9.476;2022-07-23T10:15:13;19.00;99.90
20045;DHT22;10183;47.808;9.476;2022-07-23T10:17:39;18.90;99.90
20045;DHT22;10183;47.808;9.476;2022-07-23T10:20:05;19.00;99.90
20045;DHT22;10183;47.808;9.476;2022-07-23T10:22:42;19.10;99.90
20045;DHT22;10183;47.808;9.476;2022-07-23T10:25:24;19.20;99.90
20045;DHT22;10183;47.808;9.476;2022-07-23T10:36:22;19.40;99.90
20045;DHT22;10183;47.808;9.476;2022-07-23T10:39:03;19.30;99.90
20045;DHT22;10183;47.808;9.476;2022-07-23T10:41:40;19.50;99.90
20045;DHT22;10183;47.808;9.476;2022-07-23T10:44:12;19.50;99.90
20045;DHT22;10183;47.808;9.476;2022-07-23T10:49:32;20.00;99.90
20045;DHT22;10183;47.808;9.476;2022-07-23T10:57:07;20.00;99.90
20045;DHT22;10183;47.808;9.476;2022-07-23T11:02:42;19.60;99.90
20045;DHT22;10183;47.808;9.476;2022-07-23T11:05:15;19.70;99.90
20045;DHT22;10183;47.808;9.476;2022-07-23T11:10:38;20.20;99.90
20045;DHT22;10183;47.808;9.476;2022-07-23T11:13:26;20.20;99.90
20045;DHT22;10183;47.808;9.476;2022-07-23T11:24:15;19.60;99.90
20045;DHT22;10183;47.808;9.476;2022-07-23T11:26:54;19.60;99.90
20045;DHT22;10183;47.808;9.476;2022-07-23T11:36:59;19.50;99.90
20045;DHT22;10183;47.808;9.476;2022-07-23T11:39:28;19.50;99.90
20045;DHT22;10183;47.808;9.476;2022-07-23T11:41:55;19.60;99.90
20045;DHT22;10183;47.808;9.476;2022-07-23T11:44:30;19.70;99.90
20045;DHT22;10183;47.808;9.476;2022-07-23T11:47:05;19.80;99.90
20045;DHT22;10183;47.808;9.476;2022-07-23T11:49:33;19.80;99.90
20045;DHT22;10183;47.808;9.476;2022-07-23T11:52:08;19.90;99.90
20045;DHT22;10183;47.808;9.476;2022-07-23T11:54:37;20.00;99.90
20045;DHT22;10183;47.808;9.476;2022-07-23T11:57:03;20.00;99.90
20045;DHT22;10183;47.808;9.476;2022-07-23T11:59:32;20.40;99.90
20045;DHT22;10183;47.808;9.476;2022-07-23T12:02:04;20.50;99.90
20045;DHT22;10183;47.808;9.476;2022-07-23T12:04:57;20.20;99.90
20045;DHT22;10183;47.808;9.476;2022-07-23T12:07:35;20.20;99.90
20045;DHT22;10183;47.808;9.476;2022-07-23T12:10:19;20.10;99.90
20045;DHT22;10183;47.808;9.476;2022-07-23T12:12:59;20.00;99.90
20045;DHT22;10183;47.808;9.476;2022-07-23T12:15:32;19.90;99.90
20045;DHT22;10183;47.808;9.476;2022-07-23T12:18:00;20.20;99.90
20045;DHT22;10183;47.808;9.476;2022-07-23T12:20:40;20.00;99.90
20045;DHT22;10183;47.808;9.476;2022-07-23T12:23:09;19.90;99.90
20045;DHT22;10183;47.808;9.476;2022-07-23T12:25:39;19.90;99.90
20045;DHT22;10183;47.808;9.476;2022-07-23T12:30:47;20.00;99.90
20045;DHT22;10183;47.808;9.476;2022-07-23T12:33:25;20.00;99.90
20045;DHT22;10183;47.808;9.476;2022-07-23T12:35:54;19.90;99.90
20045;DHT22;10183;47.808;9.476;2022-07-23T12:38:23;19.80;99.90
20045;DHT22;10183;47.808;9.476;2022-07-23T12:40:59;19.90;99.90
20045;DHT22;10183;47.808;9.476;2022-07-23T12:43:27;20.10;99.90
20045;DHT22;10183;47.808;9.476;2022-07-23T12:46:09;20.60;99.90
20045;DHT22;10183;47.808;9.476;2022-07-23T12:51:06;21.00;99.90
20045;DHT22;10183;47.808;9.476;2022-07-23T12:53:40;21.30;99.90
20045;DHT22;10183;47.808;9.476;2022-07-23T12:56:08;21.30;99.90
20045;DHT22;10183;47.808;9.476;2022-07-23T12:58:48;21.60;99.90
20045;DHT22;10183;47.808;9.476;2022-07-23T13:04:11;22.60;99.90
20045;DHT22;10183;47.808;9.476;2022-07-23T13:06:42;22.80;99.90
20045;DHT22;10183;47.808;9.476;2022-07-23T13:09:11;22.80;99.90
20045;DHT22;10183;47.808;9.476;2022-07-23T13:11:39;22.20;99.90
20045;DHT22;10183;47.808;9.476;2022-07-23T13:14:05;22.70;99.90
20045;DHT22;10183;47.808;9.476;2022-07-23T13:16:32;22.30;99.90
20045;DHT22;10183;47.808;9.476;2022-07-23T13:18:59;22.40;99.90
20045;DHT22;10183;47.808;9.476;2022-07-23T13:21:27;22.60;99.90
20045;DHT22;10183;47.808;9.476;2022-07-23T13:23:54;22.60;99.90
20045;DHT22;10183;47.808;9.476;2022-07-23T13:26:21;22.50;99.90
20045;DHT22;10183;47.808;9.476;2022-07-23T13:28:47;22.80;99.90
20045;DHT22;10183;47.808;9.476;2022-07-23T13:31:13;23.30;99.90
20045;DHT22;10183;47.808;9.476;2022-07-23T13:33:40;23.30;99.90
20045;DHT22;10183;47.808;9.476;2022-07-23T13:36:06;24.10;99.90
20045;DHT22;10183;47.808;9.476;2022-07-23T13:38:32;24.80;99.90
20045;DHT22;10183;47.808;9.476;2022-07-23T13:40:58;25.10;99.90
20045;DHT22;10183;47.808;9.476;2022-07-23T13:43:25;25.10;99.90
20045;DHT22;10183;47.808;9.476;2022-07-23T13:45:52;25.40;99.90
20045;DHT22;10183;47.808;9.476;2022-07-23T13:48:19;24.30;99.90
20045;DHT22;10183;47.808;9.476;2022-07-23T13:50:46;24.50;99.90
20045;DHT22;10183;47.808;9.476;2022-07-23T13:53:18;24.60;99.90
20045;DHT22;10183;47.808;9.476;2022-07-23T13:55:45;24.80;99.90
20045;DHT22;10183;47.808;9.476;2022-07-23T13:58:13;24.80;99.90
20045;DHT22;10183;47.808;9.476;2022-07-23T14:00:50;24.80;99.90
20045;DHT22;10183;47.808;9.476;2022-07-23T14:03:17;24.20;99.90
20045;DHT22;10183;47.808;9.476;2022-07-23T14:05:44;24.40;99.90
20045;DHT22;10183;47.808;9.476;2022-07-23T14:08:10;24.90;99.90
20045;DHT22;10183;47.808;9.476;2022-07-23T14:10:37;24.90;99.90
20045;DHT22;10183;47.808;9.476;2022-07-23T14:13:03;25.80;99.90
20045;DHT22;10183;47.808;9.476;2022-07-23T14:15:31;26.10;99.90
20045;DHT22;10183;47.808;9.476;2022-07-23T14:17:57;25.90;99.90
20045;DHT22;10183;47.808;9.476;2022-07-23T14:20:24;26.30;99.90
20045;DHT22;10183;47.808;9.476;2022-07-23T14:22:51;27.30;99.90
20045;DHT22;10183;47.808;9.476;2022-07-23T14:25:18;27.90;99.90
20045;DHT22;10183;47.808;9.476;2022-07-23T14:27:45;25.80;99.90
20045;DHT22;10183;47.808;9.476;2022-07-23T14:30:12;25.70;99.90
20045;DHT22;10183;47.808;9.476;2022-07-23T14:32:40;26.10;99.90
20045;DHT22;10183;47.808;9.476;2022-07-23T14:35:07;26.50;99.90
20045;DHT22;10183;47.808;9.476;2022-07-23T14:37:33;27.40;99.90
20045;DHT22;10183;47.808;9.476;2022-07-23T14:40:00;26.80;99.90
20045;DHT22;10183;47.808;9.476;2022-07-23T14:42:26;25.80;99.90
20045;DHT22;10183;47.808;9.476;2022-07-23T14:44:52;25.30;99.90
20045;DHT22;10183;47.808;9.476;2022-07-23T14:47:18;25.70;99.90
20045;DHT22;10183;47.808;9.476;2022-07-23T14:49:44;25.90;99.90
20045;DHT22;10183;47.808;9.476;2022-07-23T14:52:10;26.40;99.90
20045;DHT22;10183;47.808;9.476;2022-07-23T14:54:37;26.80;99.90
20045;DHT22;10183;47.808;9.476;2022-07-23T14:57:03;26.70;99.90
20045;DHT22;10183;47.808;9.476;2022-07-23T14:59:30;25.00;99.90
20045;DHT22;10183;47.808;9.476;2022-07-23T15:01:57;24.90;99.90
20045;DHT22;10183;47.808;9.476;2022-07-23T15:04:24;25.70;99.90
20045;DHT22;10183;47.808;9.476;2022-07-23T15:06:51;25.50;99.90
20045;DHT22;10183;47.808;9.476;2022-07-23T15:09:17;25.50;99.90
20045;DHT22;10183;47.808;9.476;2022-07-23T15:11:43;25.70;99.90
20045;DHT22;10183;47.808;9.476;2022-07-23T15:14:10;26.40;99.90
20045;DHT22;10183;47.808;9.476;2022-07-23T15:16:37;28.10;99.90
20045;DHT22;10183;47.808;9.476;2022-07-23T15:19:03;27.80;99.90
20045;DHT22;10183;47.808;9.476;2022-07-23T15:21:30;27.70;99.90
20045;DHT22;10183;47.808;9.476;2022-07-23T15:23:57;27.20;99.90
20045;DHT22;10183;47.808;9.476;2022-07-23T15:26:27;26.30;99.90
20045;DHT22;10183;47.808;9.476;2022-07-23T15:28:54;25.50;99.90
20045;DHT22;10183;47.808;9.476;2022-07-23T15:31:21;25.10;99.90
20045;DHT22;10183;47.808;9.476;2022-07-23T15:33:47;26.10;99.90
20045;DHT22;10183;47.808;9.476;2022-07-23T15:36:13;26.90;99.90
20045;DHT22;10183;47.808;9.476;2022-07-23T15:38:40;27.70;99.90
20045;DHT22;10183;47.808;9.476;2022-07-23T15:41:07;27.30;99.90
20045;DHT22;10183;47.808;9.476;2022-07-23T15:43:34;26.60;99.90
20045;DHT22;10183;47.808;9.476;2022-07-23T15:46:01;26.80;99.90
20045;DHT22;10183;47.808;9.476;2022-07-23T15:48:27;25.80;99.90
20045;DHT22;10183;47.808;9.476;2022-07-23T15:50:53;25.50;99.90
20045;DHT22;10183;47.808;9.476;2022-07-23T15:53:19;25.70;99.90
20045;DHT22;10183;47.808;9.476;2022-07-23T15:55:46;24.80;99.90
20045;DHT22;10183;47.808;9.476;2022-07-23T15:58:12;25.30;99.90
20045;DHT22;10183;47.808;9.476;2022-07-23T16:00:39;25.30;99.90
20045;DHT22;10183;47.808;9.476;2022-07-23T16:03:05;25.40;99.90
20045;DHT22;10183;47.808;9.476;2022-07-23T16:05:31;25.40;99.90
20045;DHT22;10183;47.808;9.476;2022-07-23T16:08:01;25.70;99.90
20045;DHT22;10183;47.808;9.476;2022-07-23T16:10:28;25.90;99.90
20045;DHT22;10183;47.808;9.476;2022-07-23T16:12:55;26.00;99.90
20045;DHT22;10183;47.808;9.476;2022-07-23T16:15:21;25.80;99.90
20045;DHT22;10183;47.808;9.476;2022-07-23T16:17:48;26.20;99.90
20045;DHT22;10183;47.808;9.476;2022-07-23T16:20:14;26.40;99.90
20045;DHT22;10183;47.808;9.476;2022-07-23T16:22:40;26.90;99.90